sensor_id;sensor_type;location;lat;lon;timestamp;pressure;altitude;pressure_sealevel;temperature;humidity
48976;BME280;34791;52.752;8.346;2023-04-09T00:01:15;149474.13;;;8.01;100.00
48976;BME280;34791;52.752;8.346;2023-04-09T00:03:41;149465.06;;;7.98;100.00
48976;BME280;34791;52.752;8.346;2023-04-09T00:06:06;149457.31;;;7.94;100.00
48976;BME280;34791;52.752;8.346;2023-04-09T00:08:32;149448.28;;;7.91;100.00
48976;BME280;34791;52.752;8.346;2023-04-09T00:10:58;149466.34;;;7.98;100.00
48976;BME280;34791;52.752;8.346;2023-04-09T00:13:24;149468.94;;;7.99;100.00
48976;BME280;34791;52.752;8.346;2023-04-09T00:15:50;149459.88;;;7.96;100.00
48976;BME280;34791;52.752;8.346;2023-04-09T00:18:15;149461.19;;;7.96;100.00
48976;BME280;34791;52.752;8.346;2023-04-09T00:20:41;149466.34;;;7.98;100.00
48976;BME280;34791;52.752;8.346;2023-04-09T00:23:07;149472.84;;;8.01;100.00
48976;BME280;34791;52.752;8.346;2023-04-09T00:25:33;149463.75;;;7.97;100.00
48976;BME280;34791;52.752;8.346;2023-04-09T00:27:59;149468.94;;;7.99;100.00
48976;BME280;34791;52.752;8.346;2023-04-09T00:30:24;149474.13;;;8.01;100.00
48976;BME280;34791;52.752;8.346;2023-04-09T00:32:50;149456.00;;;7.94;100.00
48976;BME280;34791;52.752;8.346;2023-04-09T00:35:15;149463.75;;;7.97;100.00
48976;BME280;34791;52.752;8.346;2023-04-09T00:37:42;149450.84;;;7.92;100.00
48976;BME280;34791;52.752;8.346;2023-04-09T00:40:07;149437.91;;;7.87;100.00
48976;BME280;34791;52.752;8.346;2023-04-09T00:42:34;149440.53;;;7.88;100.00
48976;BME280;34791;52.752;8.346;2023-04-09T00:45:00;149432.75;;;7.85;100.00
48976;BME280;34791;52.752;8.346;2023-04-09T00:47:25;149448.28;;;7.91;100.00
48976;BME280;34791;52.752;8.346;2023-04-09T00:49:52;149445.69;;;7.90;100.00
48976;BME280;34791;52.752;8.346;2023-04-09T00:52:18;149432.75;;;7.85;100.00
48976;BME280;34791;52.752;8.346;2023-04-09T00:54:44;149426.28;;;7.82;100.00
48976;BME280;34791;52.752;8.346;2023-04-09T00:57:09;149427.59;;;7.83;100.00
48976;BME280;34791;52.752;8.346;2023-04-09T00:59:37;149425.00;;;7.82;100.00
48976;BME280;34791;52.752;8.346;2023-04-09T01:02:02;149403.03;;;7.73;100.00
48976;BME280;34791;52.752;8.346;2023-04-09T01:04:28;149388.84;;;7.68;100.00
48976;BME280;34791;52.752;8.346;2023-04-09T01:07:12;149368.16;;;7.59;100.00
48976;BME280;34791;52.752;8.346;2023-04-09T01:09:49;149364.28;;;7.58;100.00
48976;BME280;34791;52.752;8.346;2023-04-09T01:13:03;149378.53;;;7.63;100.00
48976;BME280;34791;52.752;8.346;2023-04-09T01:15:35;149388.84;;;7.68;100.00
48976;BME280;34791;52.752;8.346;2023-04-09T01:18:35;149384.97;;;7.66;100.00
48976;BME280;34791;52.752;8.346;2023-04-09T01:21:07;149377.19;;;7.63;100.00
48976;BME280;34791;52.752;8.346;2023-04-09T01:24:40;149387.56;;;7.67;100.00
48976;BME280;34791;52.752;8.346;2023-04-09T01:27:03;149382.38;;;7.65;100.00
48976;BME280;34791;52.752;8.346;2023-04-09T01:29:33;149364.28;;;7.58;100.00
48976;BME280;34791;52.752;8.346;2023-04-09T01:32:01;149335.84;;;7.47;100.00
48976;BME280;34791;52.752;8.346;2023-04-09T01:34:27;149301.00;;;7.33;100.00
48976;BME280;34791;52.752;8.346;2023-04-09T01:36:57;149281.59;;;7.25;100.00
48976;BME280;34791;52.752;8.346;2023-04-09T01:39:24;149254.47;;;7.15;100.00
48976;BME280;34791;52.752;8.346;2023-04-09T01:41:51;149208.00;;;6.96;100.00
48976;BME280;34791;52.752;8.346;2023-04-09T01:44:18;149170.56;;;6.82;100.00
48976;BME280;34791;52.752;8.346;2023-04-09T01:46:46;149127.94;;;6.65;100.00
48976;BME280;34791;52.752;8.346;2023-04-09T01:49:13;149078.94;;;6.45;100.00
48976;BME280;34791;52.752;8.346;2023-04-09T01:51:40;149023.44;;;6.24;100.00
48976;BME280;34791;52.752;8.346;2023-04-09T01:54:05;148988.59;;;6.10;100.00
48976;BME280;34791;52.752;8.346;2023-04-09T01:56:44;148927.91;;;5.86;100.00
48976;BME280;34791;52.752;8.346;2023-04-09T01:59:10;148911.13;;;5.79;100.00
48976;BME280;34791;52.752;8.346;2023-04-09T02:01:57;148898.25;;;5.74;100.00
48976;BME280;34791;52.752;8.346;2023-04-09T02:04:36;148872.44;;;5.64;100.00
48976;BME280;34791;52.752;8.346;2023-04-09T02:07:14;148844.06;;;5.53;100.00
48976;BME280;34791;52.752;8.346;2023-04-09T02:09:44;148802.81;;;5.37;100.00
48976;BME280;34791;52.752;8.346;2023-04-09T02:12:14;148779.59;;;5.27;100.00
48976;BME280;34791;52.752;8.346;2023-04-09T02:14:41;148761.53;;;5.20;100.00
48976;BME280;34791;52.752;8.346;2023-04-09T02:17:08;148730.59;;;5.08;100.00
48976;BME280;34791;52.752;8.346;2023-04-09T02:19:42;148698.38;;;4.95;100.00
48976;BME280;34791;52.752;8.346;2023-04-09T02:22:09;148663.59;;;4.82;100.00
48976;BME280;34791;52.752;8.346;2023-04-09T02:24:34;148698.38;;;4.95;100.00
48976;BME280;34791;52.752;8.346;2023-04-09T02:27:01;148697.09;;;4.95;100.00
48976;BME280;34791;52.752;8.346;2023-04-09T02:29:26;148686.78;;;4.91;100.00
48976;BME280;34791;52.752;8.346;2023-04-09T02:31:52;148675.22;;;4.86;100.00
48976;BME280;34791;52.752;8.346;2023-04-09T02:34:18;148672.63;;;4.85;100.00
48976;BME280;34791;52.752;8.346;2023-04-09T02:36:44;148675.22;;;4.86;100.00
48976;BME280;34791;52.752;8.346;2023-04-09T02:39:09;148679.06;;;4.88;100.00
48976;BME280;34791;52.752;8.346;2023-04-09T02:41:35;148666.16;;;4.83;100.00
48976;BME280;34791;52.752;8.346;2023-04-09T02:44:00;148680.34;;;4.88;100.00
48976;BME280;34791;52.752;8.346;2023-04-09T02:46:26;148673.94;;;4.86;100.00
48976;BME280;34791;52.752;8.346;2023-04-09T02:48:51;148659.72;;;4.80;100.00
48976;BME280;34791;52.752;8.346;2023-04-09T02:51:17;148646.84;;;4.75;100.00
48976;BME280;34791;52.752;8.346;2023-04-09T02:53:42;148649.44;;;4.76;100.00
48976;BME280;34791;52.752;8.346;2023-04-09T02:56:09;148668.72;;;4.84;100.00
48976;BME280;34791;52.752;8.346;2023-04-09T02:58:35;148655.88;;;4.79;100.00
48976;BME280;34791;52.752;8.346;2023-04-09T03:01:00;148632.66;;;4.69;100.00
48976;BME280;34791;52.752;8.346;2023-04-09T03:03:26;148609.50;;;4.60;100.00
48976;BME280;34791;52.752;8.346;2023-04-09T03:05:51;148596.59;;;4.55;100.00
48976;BME280;34791;52.752;8.346;2023-04-09T03:08:17;148587.59;;;4.52;100.00
48976;BME280;34791;52.752;8.346;2023-04-09T03:10:42;148592.72;;;4.54;100.00
48976;BME280;34791;52.752;8.346;2023-04-09T03:13:08;148565.66;;;4.43;100.00
48976;BME280;34791;52.752;8.346;2023-04-09T03:15:33;148542.47;;;4.34;100.00
48976;BME280;34791;52.752;8.346;2023-04-09T03:17:59;148534.75;;;4.31;100.00
48976;BME280;34791;52.752;8.346;2023-04-09T03:20:24;148554.09;;;4.38;100.00
48976;BME280;34791;52.752;8.346;2023-04-09T03:22:50;148557.94;;;4.40;100.00
48976;BME280;34791;52.752;8.346;2023-04-09T03:25:15;148520.59;;;4.25;100.00
48976;BME280;34791;52.752;8.346;2023-04-09T03:27:43;148518.03;;;4.24;100.00
48976;BME280;34791;52.752;8.346;2023-04-09T03:30:10;148518.03;;;4.24;100.00
48976;BME280;34791;52.752;8.346;2023-04-09T03:32:35;148541.19;;;4.33;100.00
48976;BME280;34791;52.752;8.346;2023-04-09T03:35:01;148560.53;;;4.41;100.00
48976;BME280;34791;52.752;8.346;2023-04-09T03:37:26;148569.53;;;4.45;100.00
48976;BME280;34791;52.752;8.346;2023-04-09T03:39:52;148586.28;;;4.51;100.00
48976;BME280;34791;52.752;8.346;2023-04-09T03:42:17;148586.28;;;4.51;100.00
48976;BME280;34791;52.752;8.346;2023-04-09T03:44:43;148585.00;;;4.51;100.00
48976;BME280;34791;52.752;8.346;2023-04-09T03:47:08;148581.16;;;4.49;100.00
48976;BME280;34791;52.752;8.346;2023-04-09T03:49:34;148582.44;;;4.50;100.00
48976;BME280;34791;52.752;8.346;2023-04-09T03:52:00;148572.09;;;4.46;100.00
48976;BME280;34791;52.752;8.346;2023-04-09T03:54:29;148581.16;;;4.49;100.00
48976;BME280;34791;52.752;8.346;2023-04-09T03:56:55;148560.53;;;4.41;100.00
48976;BME280;34791;52.752;8.346;2023-04-09T03:59:22;148528.31;;;4.28;100.00
48976;BME280;34791;52.752;8.346;2023-04-09T04:01:47;148508.97;;;4.21;100.00
48976;BME280;34791;52.752;8.346;2023-04-09T04:04:13;148481.94;;;4.10;100.00
48976;BME280;34791;52.752;8.346;2023-04-09T04:06:38;148457.50;;;4.00;100.00
48976;BME280;34791;52.752;8.346;2023-04-09T04:09:04;148457.50;;;4.00;100.00
48976;BME280;34791;52.752;8.346;2023-04-09T04:11:30;148488.41;;;4.13;100.00
48976;BME280;34791;52.752;8.346;2023-04-09T04:13:55;148499.97;;;4.17;100.00
48976;BME280;34791;52.752;8.346;2023-04-09T04:16:21;148481.94;;;4.10;100.00
48976;BME280;34791;52.752;8.346;2023-04-09T04:18:46;148462.66;;;4.02;100.00
48976;BME280;34791;52.752;8.346;2023-04-09T04:21:16;148462.66;;;4.02;100.00
48976;BME280;34791;52.752;8.346;2023-04-09T04:23:41;148460.06;;;4.01;100.00
48976;BME280;34791;52.752;8.346;2023-04-09T04:26:08;148458.78;;;4.01;100.00
48976;BME280;34791;52.752;8.346;2023-04-09T04:28:37;148465.22;;;4.03;100.00
48976;BME280;34791;52.752;8.346;2023-04-09T04:31:12;148470.34;;;4.05;100.00
48976;BME280;34791;52.752;8.346;2023-04-09T04:33:39;148465.22;;;4.03;100.00
48976;BME280;34791;52.752;8.346;2023-04-09T04:36:09;148442.03;;;3.94;100.00
48976;BME280;34791;52.752;8.346;2023-04-09T04:38:36;148421.41;;;3.86;100.00
48976;BME280;34791;52.752;8.346;2023-04-09T04:41:02;148434.31;;;3.91;100.00
48976;BME280;34791;52.752;8.346;2023-04-09T04:43:27;148453.59;;;3.99;100.00
48976;BME280;34791;52.752;8.346;2023-04-09T04:45:53;148466.50;;;4.04;100.00
48976;BME280;34791;52.752;8.346;2023-04-09T04:48:19;148489.69;;;4.13;100.00
48976;BME280;34791;52.752;8.346;2023-04-09T04:50:44;148488.41;;;4.13;100.00
48976;BME280;34791;52.752;8.346;2023-04-09T04:53:10;148497.41;;;4.16;100.00
48976;BME280;34791;52.752;8.346;2023-04-09T04:55:35;148485.78;;;4.11;100.00
48976;BME280;34791;52.752;8.346;2023-04-09T04:58:01;148484.50;;;4.11;100.00
48976;BME280;34791;52.752;8.346;2023-04-09T05:00:27;148524.47;;;4.27;100.00
48976;BME280;34791;52.752;8.346;2023-04-09T05:02:52;148560.53;;;4.41;100.00
48976;BME280;34791;52.752;8.346;2023-04-09T05:05:17;148583.72;;;4.50;100.00
48976;BME280;34791;52.752;8.346;2023-04-09T05:07:43;148599.16;;;4.56;100.00
48976;BME280;34791;52.752;8.346;2023-04-09T05:10:09;148632.66;;;4.69;100.00
48976;BME280;34791;52.752;8.346;2023-04-09T05:12:34;148658.44;;;4.80;100.00
48976;BME280;34791;52.752;8.346;2023-04-09T05:15:00;148676.50;;;4.87;100.00
48976;BME280;34791;52.752;8.346;2023-04-09T05:17:26;148688.06;;;4.91;100.00
48976;BME280;34791;52.752;8.346;2023-04-09T05:19:52;148694.50;;;4.94;100.00
48976;BME280;34791;52.752;8.346;2023-04-09T05:22:18;148698.38;;;4.95;100.00
48976;BME280;34791;52.752;8.346;2023-04-09T05:24:43;148702.28;;;4.97;100.00
48976;BME280;34791;52.752;8.346;2023-04-09T05:27:09;148704.84;;;4.98;100.00
48976;BME280;34791;52.752;8.346;2023-04-09T05:29:34;148707.44;;;4.99;100.00
48976;BME280;34791;52.752;8.346;2023-04-09T05:32:00;148725.44;;;5.06;100.00
48976;BME280;34791;52.752;8.346;2023-04-09T05:34:25;148740.94;;;5.12;100.00
48976;BME280;34791;52.752;8.346;2023-04-09T05:36:51;148751.25;;;5.16;100.00
48976;BME280;34791;52.752;8.346;2023-04-09T05:39:17;148769.31;;;5.23;100.00
48976;BME280;34791;52.752;8.346;2023-04-09T05:41:42;148761.53;;;5.20;100.00
48976;BME280;34791;52.752;8.346;2023-04-09T05:44:11;148756.38;;;5.18;100.00
48976;BME280;34791;52.752;8.346;2023-04-09T05:46:37;148777.03;;;5.26;100.00
48976;BME280;34791;52.752;8.346;2023-04-09T05:49:02;148802.81;;;5.37;100.00
48976;BME280;34791;52.752;8.346;2023-04-09T05:51:28;148823.41;;;5.45;100.00
48976;BME280;34791;52.752;8.346;2023-04-09T05:53:54;148823.41;;;5.45;100.00
48976;BME280;34791;52.752;8.346;2023-04-09T05:56:19;148841.50;;;5.52;100.00
48976;BME280;34791;52.752;8.346;2023-04-09T05:58:47;148849.22;;;5.55;100.00
48976;BME280;34791;52.752;8.346;2023-04-09T06:01:12;148849.22;;;5.55;100.00
48976;BME280;34791;52.752;8.346;2023-04-09T06:03:38;148863.44;;;5.61;100.00
48976;BME280;34791;52.752;8.346;2023-04-09T06:06:04;148866.00;;;5.62;100.00
48976;BME280;34791;52.752;8.346;2023-04-09T06:08:29;148867.28;;;5.62;100.00
48976;BME280;34791;52.752;8.346;2023-04-09T06:10:55;148900.81;;;5.75;100.00
48976;BME280;34791;52.752;8.346;2023-04-09T06:13:21;148915.00;;;5.81;100.00
48976;BME280;34791;52.752;8.346;2023-04-09T06:15:46;148947.31;;;5.94;100.00
48976;BME280;34791;52.752;8.346;2023-04-09T06:18:12;148970.50;;;6.03;100.00
48976;BME280;34791;52.752;8.346;2023-04-09T06:20:37;149027.28;;;6.25;100.00
48976;BME280;34791;52.752;8.346;2023-04-09T06:23:04;149041.50;;;6.31;100.00
48976;BME280;34791;52.752;8.346;2023-04-09T06:25:29;149066.00;;;6.40;100.00
48976;BME280;34791;52.752;8.346;2023-04-09T06:27:55;149134.44;;;6.67;100.00
48976;BME280;34791;52.752;8.346;2023-04-09T06:30:20;149241.56;;;7.10;100.00
48976;BME280;34791;52.752;8.346;2023-04-09T06:32:47;149352.66;;;7.53;100.00
48976;BME280;34791;52.752;8.346;2023-04-09T06:35:13;149497.34;;;8.10;100.00
48976;BME280;34791;52.752;8.346;2023-04-09T06:37:39;149587.91;;;8.46;100.00
48976;BME280;34791;52.752;8.346;2023-04-09T06:40:05;149681.00;;;8.82;100.00
48976;BME280;34791;52.752;8.346;2023-04-09T06:42:31;149785.81;;;9.24;100.00
48976;BME280;34791;52.752;8.346;2023-04-09T06:44:57;149854.38;;;9.51;100.00
48976;BME280;34791;52.752;8.346;2023-04-09T06:47:22;150071.91;;;10.36;100.00
48976;BME280;34791;52.752;8.346;2023-04-09T06:49:48;150193.66;;;10.84;100.00
48976;BME280;34791;52.752;8.346;2023-04-09T06:52:13;150141.81;;;10.64;100.00
48976;BME280;34791;52.752;8.346;2023-04-09T06:54:39;150217.00;;;10.93;100.00
48976;BME280;34791;52.752;8.346;2023-04-09T06:57:05;150268.78;;;11.13;100.00
48976;BME280;34791;52.752;8.346;2023-04-09T06:59:31;150445.13;;;11.83;100.00
48976;BME280;34791;52.752;8.346;2023-04-09T07:01:58;150559.28;;;12.27;100.00
48976;BME280;34791;52.752;8.346;2023-04-09T07:04:24;150380.25;;;11.57;100.00
48976;BME280;34791;52.752;8.346;2023-04-09T07:06:49;150520.38;;;12.12;100.00
48976;BME280;34791;52.752;8.346;2023-04-09T07:09:17;150647.50;;;12.62;100.00
48976;BME280;34791;52.752;8.346;2023-04-09T07:11:43;150509.97;;;12.08;100.00
48976;BME280;34791;52.752;8.346;2023-04-09T07:14:08;150570.94;;;12.32;100.00
48976;BME280;34791;52.752;8.346;2023-04-09T07:16:34;150550.22;;;12.24;100.00
48976;BME280;34791;52.752;8.346;2023-04-09T07:18:59;150478.84;;;11.96;100.00
48976;BME280;34791;52.752;8.346;2023-04-09T07:21:25;150447.72;;;11.84;100.00
48976;BME280;34791;52.752;8.346;2023-04-09T07:23:52;150612.47;;;12.48;100.00
48976;BME280;34791;52.752;8.346;2023-04-09T07:26:18;150740.94;;;12.99;100.00
48976;BME280;34791;52.752;8.346;2023-04-09T07:28:43;150570.94;;;12.32;100.00
48976;BME280;34791;52.752;8.346;2023-04-09T07:31:09;150557.97;;;12.27;100.00
48976;BME280;34791;52.752;8.346;2023-04-09T07:33:35;150594.28;;;12.41;100.00
48976;BME280;34791;52.752;8.346;2023-04-09T07:36:01;150690.28;;;12.79;100.00
48976;BME280;34791;52.752;8.346;2023-04-09T07:38:28;150892.88;;;13.58;100.00
48976;BME280;34791;52.752;8.346;2023-04-09T07:40:54;150768.19;;;13.09;100.00
48976;BME280;34791;52.752;8.346;2023-04-09T07:43:20;150787.63;;;13.17;100.00
48976;BME280;34791;52.752;8.346;2023-04-09T07:45:47;150769.47;;;13.10;100.00
48976;BME280;34791;52.752;8.346;2023-04-09T07:48:13;150786.34;;;13.16;100.00
48976;BME280;34791;52.752;8.346;2023-04-09T07:50:39;150912.31;;;13.66;100.00
48976;BME280;34791;52.752;8.346;2023-04-09T07:53:04;150938.28;;;13.76;100.00
48976;BME280;34791;52.752;8.346;2023-04-09T07:55:30;151081.19;;;14.32;100.00
48976;BME280;34791;52.752;8.346;2023-04-09T07:57:55;150985.06;;;13.94;100.00
48976;BME280;34791;52.752;8.346;2023-04-09T08:00:21;150917.50;;;13.68;100.00
48976;BME280;34791;52.752;8.346;2023-04-09T08:02:46;150943.47;;;13.78;100.00
48976;BME280;34791;52.752;8.346;2023-04-09T08:05:12;151057.78;;;14.23;100.00
48976;BME280;34791;52.752;8.346;2023-04-09T08:07:37;151030.50;;;14.12;100.00
48976;BME280;34791;52.752;8.346;2023-04-09T08:10:04;150998.03;;;13.99;100.00
48976;BME280;34791;52.752;8.346;2023-04-09T08:12:30;151101.94;;;14.40;100.00
48976;BME280;34791;52.752;8.346;2023-04-09T08:14:56;150937.00;;;13.75;100.00
48976;BME280;34791;52.752;8.346;2023-04-09T08:17:21;151001.94;;;14.01;100.00
48976;BME280;34791;52.752;8.346;2023-04-09T08:19:47;151293.09;;;15.15;100.00
48976;BME280;34791;52.752;8.346;2023-04-09T08:22:14;151348.97;;;15.37;100.00
48976;BME280;34791;52.752;8.346;2023-04-09T08:24:40;151440.06;;;15.72;100.00
48976;BME280;34791;52.752;8.346;2023-04-09T08:27:07;151265.81;;;15.04;100.00
48976;BME280;34791;52.752;8.346;2023-04-09T08:29:33;151315.19;;;15.23;100.00
48976;BME280;34791;52.752;8.346;2023-04-09T08:31:59;147629.88;;;15.55;100.00
48976;BME280;34791;52.752;8.346;2023-04-09T08:34:24;137085.72;;;15.72;100.00
48976;BME280;34791;52.752;8.346;2023-04-09T08:36:50;126815.28;;;15.47;100.00
48976;BME280;34791;52.752;8.346;2023-04-09T08:39:16;119226.44;;;14.88;100.00
48976;BME280;34791;52.752;8.346;2023-04-09T08:41:44;125088.25;;;15.34;100.00
48976;BME280;34791;52.752;8.346;2023-04-09T08:44:10;109595.06;;;15.86;100.00
48976;BME280;34791;52.752;8.346;2023-04-09T08:46:36;91757.50;;;16.20;100.00
48976;BME280;34791;52.752;8.346;2023-04-09T08:49:01;65234.41;;;16.11;100.00
48976;BME280;34791;52.752;8.346;2023-04-09T08:51:27;47843.56;;;15.47;100.00
48976;BME280;34791;52.752;8.346;2023-04-09T08:54:00;62863.44;;;15.81;100.00
48976;BME280;34791;52.752;8.346;2023-04-09T08:56:26;58594.38;;;16.49;100.00
48976;BME280;34791;52.752;8.346;2023-04-09T08:58:52;46277.25;;;16.63;100.00
48976;BME280;34791;52.752;8.346;2023-04-09T09:01:22;15475.97;;;16.50;100.00
48976;BME280;34791;52.752;8.346;2023-04-09T09:03:59;-19594.34;;;16.47;100.00
48976;BME280;34791;52.752;8.346;2023-04-09T09:06:29;-19584.28;;;16.08;100.00
48976;BME280;34791;52.752;8.346;2023-04-09T09:09:06;-19578.16;;;15.84;100.00
48976;BME280;34791;52.752;8.346;2023-04-09T09:11:34;-19585.06;;;16.11;100.00
48976;BME280;34791;52.752;8.346;2023-04-09T09:14:17;-19602.06;;;16.77;100.00
48976;BME280;34791;52.752;8.346;2023-04-09T09:17:02;-19580.63;;;15.94;100.00
48976;BME280;34791;52.752;8.346;2023-04-09T09:19:30;-19580.88;;;15.95;100.00
48976;BME280;34791;52.752;8.346;2023-04-09T09:22:05;-19598.94;;;16.65;100.00
48976;BME280;34791;52.752;8.346;2023-04-09T09:24:33;-19604.94;;;16.88;100.00
48976;BME280;34791;52.752;8.346;2023-04-09T09:27:38;-19606.25;;;16.93;100.00
48976;BME280;34791;52.752;8.346;2023-04-09T09:30:08;-19626.22;;;17.71;100.00
48976;BME280;34791;52.752;8.346;2023-04-09T09:32:44;-19611.47;;;17.14;100.00
48976;BME280;34791;52.752;8.346;2023-04-09T09:35:10;-19609.63;;;17.07;100.00
48976;BME280;34791;52.752;8.346;2023-04-09T09:37:36;-19622.16;;;17.55;100.00
48976;BME280;34791;52.752;8.346;2023-04-09T09:40:02;-19614.06;;;17.24;100.00
48976;BME280;34791;52.752;8.346;2023-04-09T09:42:29;-19606.63;;;16.95;100.00
48976;BME280;34791;52.752;8.346;2023-04-09T09:44:54;-19610.16;;;17.09;100.00
48976;BME280;34791;52.752;8.346;2023-04-09T09:47:21;-19606.63;;;16.95;100.00
48976;BME280;34791;52.752;8.346;2023-04-09T09:49:51;-19612.00;;;17.16;100.00
48976;BME280;34791;52.752;8.346;2023-04-09T09:52:24;-19612.25;;;17.17;100.00
48976;BME280;34791;52.752;8.346;2023-04-09T09:54:53;-19605.06;;;16.89;100.00
48976;BME280;34791;52.752;8.346;2023-04-09T09:57:20;-19625.56;;;17.69;100.00
48976;BME280;34791;52.752;8.346;2023-04-09T10:00:01;-19603.25;;;16.82;100.00
48976;BME280;34791;52.752;8.346;2023-04-09T10:02:30;-19617.47;;;17.37;100.00
48976;BME280;34791;52.752;8.346;2023-04-09T10:05:03;-19626.34;;;17.72;100.00
48976;BME280;34791;52.752;8.346;2023-04-09T10:07:30;-19621.13;;;17.51;100.00
48976;BME280;34791;52.752;8.346;2023-04-09T10:09:57;-19625.28;;;17.68;100.00
48976;BME280;34791;52.752;8.346;2023-04-09T10:12:23;-19634.03;;;18.02;100.00
48976;BME280;34791;52.752;8.346;2023-04-09T10:14:51;-19606.38;;;16.94;100.00
48976;BME280;34791;52.752;8.346;2023-04-09T10:17:18;-19596.31;;;16.55;100.00
48976;BME280;34791;52.752;8.346;2023-04-09T10:19:51;-19607.03;;;16.96;100.00
48976;BME280;34791;52.752;8.346;2023-04-09T10:22:22;-19616.69;;;17.34;100.00
48976;BME280;34791;52.752;8.346;2023-04-09T10:24:51;-19605.06;;;16.89;100.00
48976;BME280;34791;52.752;8.346;2023-04-09T10:27:17;-19598.66;;;16.64;100.00
48976;BME280;34791;52.752;8.346;2023-04-09T10:29:47;-19597.34;;;16.59;100.00
48976;BME280;34791;52.752;8.346;2023-04-09T10:32:18;-19599.72;;;16.68;100.00
48976;BME280;34791;52.752;8.346;2023-04-09T10:34:48;-19606.25;;;16.93;100.00
48976;BME280;34791;52.752;8.346;2023-04-09T10:37:24;-19587.69;;;16.21;100.00
48976;BME280;34791;52.752;8.346;2023-04-09T10:39:51;-19604.28;;;16.86;100.00
48976;BME280;34791;52.752;8.346;2023-04-09T10:45:13;-19613.03;;;17.20;100.00
48976;BME280;34791;52.752;8.346;2023-04-09T10:47:41;-19605.06;;;16.89;100.00
48976;BME280;34791;52.752;8.346;2023-04-09T10:50:26;-19594.22;;;16.47;100.00
48976;BME280;34791;52.752;8.346;2023-04-09T10:52:56;-19581.16;;;15.96;100.00
48976;BME280;34791;52.752;8.346;2023-04-09T10:55:31;-19573.06;;;15.64;100.00
48976;BME280;34791;52.752;8.346;2023-04-09T10:57:57;-19549.50;;;14.73;100.00
48976;BME280;34791;52.752;8.346;2023-04-09T11:00:22;-19534.03;;;14.13;100.00
48976;BME280;34791;52.752;8.346;2023-04-09T11:03:09;-19519.59;;;13.57;100.00
48976;BME280;34791;52.752;8.346;2023-04-09T11:05:38;-19515.69;;;13.41;100.00
48976;BME280;34791;52.752;8.346;2023-04-09T11:08:06;-19510.56;;;13.22;100.00
48976;BME280;34791;52.752;8.346;2023-04-09T11:10:34;-19509.78;;;13.18;100.00
48976;BME280;34791;52.752;8.346;2023-04-09T11:13:00;-19512.78;;;13.30;100.00
48976;BME280;34791;52.752;8.346;2023-04-09T11:15:26;-19513.97;;;13.35;100.00
48976;BME280;34791;52.752;8.346;2023-04-09T11:17:52;-19498.09;;;12.73;100.00
48976;BME280;34791;52.752;8.346;2023-04-09T11:20:21;-19513.19;;;13.32;100.00
48976;BME280;34791;52.752;8.346;2023-04-09T11:22:51;-19517.25;;;13.47;100.00
48976;BME280;34791;52.752;8.346;2023-04-09T11:25:19;-19516.19;;;13.43;100.00
48976;BME280;34791;52.752;8.346;2023-04-09T11:27:44;-19513.31;;;13.32;100.00
48976;BME280;34791;52.752;8.346;2023-04-09T11:30:11;-19515.69;;;13.41;100.00
48976;BME280;34791;52.752;8.346;2023-04-09T11:32:36;-19513.31;;;13.32;100.00
48976;BME280;34791;52.752;8.346;2023-04-09T11:35:02;-19519.34;;;13.56;100.00
48976;BME280;34791;52.752;8.346;2023-04-09T11:37:28;-19517.25;;;13.47;100.00
48976;BME280;34791;52.752;8.346;2023-04-09T11:39:53;-19521.31;;;13.63;100.00
48976;BME280;34791;52.752;8.346;2023-04-09T11:42:20;-19525.13;;;13.78;100.00
48976;BME280;34791;52.752;8.346;2023-04-09T11:44:51;-19529.69;;;13.96;100.00
48976;BME280;34791;52.752;8.346;2023-04-09T11:47:17;-19528.38;;;13.91;100.00
48976;BME280;34791;52.752;8.346;2023-04-09T11:49:44;-19524.59;;;13.76;100.00
48976;BME280;34791;52.752;8.346;2023-04-09T11:52:12;-19527.09;;;13.86;100.00
48976;BME280;34791;52.752;8.346;2023-04-09T11:54:38;-19529.84;;;13.96;100.00
48976;BME280;34791;52.752;8.346;2023-04-09T11:57:04;-19533.91;;;14.12;100.00
48976;BME280;34791;52.752;8.346;2023-04-09T11:59:29;-19542.16;;;14.44;100.00
48976;BME280;34791;52.752;8.346;2023-04-09T12:01:58;-19546.47;;;14.61;100.00
48976;BME280;34791;52.752;8.346;2023-04-09T12:04:24;-19568.47;;;15.46;100.00
48976;BME280;34791;52.752;8.346;2023-04-09T12:06:50;-19576.72;;;15.78;100.00
48976;BME280;34791;52.752;8.346;2023-04-09T12:09:16;-19590.81;;;16.33;100.00
48976;BME280;34791;52.752;8.346;2023-04-09T12:11:43;-19593.31;;;16.43;100.00
48976;BME280;34791;52.752;8.346;2023-04-09T12:14:16;-19586.91;;;16.18;100.00
48976;BME280;34791;52.752;8.346;2023-04-09T12:16:42;-19605.47;;;16.90;100.00
48976;BME280;34791;52.752;8.346;2023-04-09T12:19:10;-19617.06;;;17.36;100.00
48976;BME280;34791;52.752;8.346;2023-04-09T12:21:52;-19607.81;;;16.99;100.00
48976;BME280;34791;52.752;8.346;2023-04-09T12:24:22;-19615.13;;;17.28;100.00
48976;BME280;34791;52.752;8.346;2023-04-09T12:26:48;-19606.50;;;16.94;100.00
48976;BME280;34791;52.752;8.346;2023-04-09T12:29:15;-19615.38;;;17.29;100.00
48976;BME280;34791;52.752;8.346;2023-04-09T12:31:41;-19637.03;;;18.13;100.00
48976;BME280;34791;52.752;8.346;2023-04-09T12:34:07;-19647.59;;;18.55;100.00
48976;BME280;34791;52.752;8.346;2023-04-09T12:36:33;-19623.72;;;17.62;100.00
48976;BME280;34791;52.752;8.346;2023-04-09T12:38:58;-19624.78;;;17.66;100.00
48976;BME280;34791;52.752;8.346;2023-04-09T12:41:24;-19608.19;;;17.01;100.00
48976;BME280;34791;52.752;8.346;2023-04-09T12:43:49;-19605.72;;;16.91;100.00
48976;BME280;34791;52.752;8.346;2023-04-09T12:46:16;-19631.03;;;17.90;100.00
48976;BME280;34791;52.752;8.346;2023-04-09T12:48:42;-19644.06;;;18.41;100.00
48976;BME280;34791;52.752;8.346;2023-04-09T12:51:07;-19644.22;;;18.41;94.96